createdAt,value
2019-05-22T00:00:03.355Z,34.299999
2019-05-22T00:01:03.417Z,33.400002
2019-05-22T00:02:03.502Z,33.5
2019-05-22T00:03:03.826Z,32.299999
2019-05-22T00:04:03.679Z,31.5
2019-05-22T00:05:03.751Z,32.599998
2019-05-22T00:06:03.808Z,32.900002
2019-05-22T00:07:03.873Z,32.299999
2019-05-22T00:08:03.982Z,31.799999
2019-05-22T00:09:04.042Z,32.700001
2019-05-22T00:10:04.115Z,31.9
2019-05-22T00:11:04.178Z,30.4
2019-05-22T00:12:04.234Z,30.5
2019-05-22T00:13:04.388Z,29.9
2019-05-22T00:14:04.454Z,29.299999
2019-05-22T00:15:04.579Z,28.799999
2019-05-22T00:16:04.598Z,28.700001
2019-05-22T00:17:04.657Z,28
2019-05-22T00:18:04.774Z,27.299999
2019-05-22T00:19:04.855Z,27.4
2019-05-22T00:20:04.923Z,27
2019-05-22T00:21:04.996Z,25.200001
2019-05-22T00:22:05.061Z,25.5
2019-05-22T00:23:05.137Z,26.9
2019-05-22T00:24:05.232Z,26.4
2019-05-22T00:25:05.322Z,26.4
2019-05-22T00:26:05.405Z,25.700001
2019-05-22T00:27:05.549Z,26.200001
2019-05-22T00:28:05.654Z,24.6
2019-05-22T00:29:05.761Z,24.6
2019-05-22T00:30:05.860Z,24.9
2019-05-22T00:31:05.942Z,24.6
2019-05-22T00:32:06.011Z,24.200001
2019-05-22T00:33:06.106Z,24.700001
2019-05-22T00:34:06.170Z,24.299999
2019-05-22T00:35:06.221Z,23.6
2019-05-22T00:36:06.280Z,23.799999
2019-05-22T00:37:06.333Z,23.5
2019-05-22T00:38:06.657Z,24.1
2019-05-22T00:39:06.393Z,23.9
2019-05-22T00:40:06.470Z,23.9
2019-05-22T00:41:06.522Z,23.6
2019-05-22T00:42:06.578Z,24.1
2019-05-22T00:43:13.077Z,24.1
2019-05-22T00:44:07.729Z,23.799999
2019-05-22T00:45:06.789Z,23.9
2019-05-22T00:46:06.869Z,23.200001
2019-05-22T00:47:06.957Z,22.5
2019-05-22T00:48:07.039Z,23.4
2019-05-22T00:49:07.158Z,22.799999
2019-05-22T00:50:07.211Z,24.5
2019-05-22T00:51:07.361Z,24.6
2019-05-22T00:52:07.432Z,23.799999
2019-05-22T00:53:07.512Z,24.700001
2019-05-22T00:54:07.625Z,25.1
2019-05-22T00:55:07.678Z,24.799999
2019-05-22T00:56:07.766Z,24.299999
2019-05-22T00:57:07.824Z,25.200001
2019-05-22T00:58:07.903Z,25.9
2019-05-22T00:59:08.032Z,25.6
2019-05-22T01:00:08.092Z,25.200001
2019-05-22T01:01:08.177Z,25.1
2019-05-22T01:02:08.276Z,24.6
2019-05-22T01:03:08.347Z,25.700001
2019-05-22T01:04:08.430Z,25.5
2019-05-22T01:05:08.491Z,24.9
2019-05-22T01:06:08.690Z,25.799999
2019-05-22T01:07:08.580Z,24.9
2019-05-22T01:08:08.638Z,26.700001
2019-05-22T01:09:08.743Z,25.9
2019-05-22T01:10:08.814Z,24.6
2019-05-22T01:11:08.872Z,24.1
2019-05-22T01:12:08.955Z,24.299999
2019-05-22T01:13:09.023Z,23.700001
2019-05-22T01:14:09.140Z,23.700001
2019-05-22T01:15:09.229Z,24
2019-05-22T01:16:09.294Z,22.299999
2019-05-22T01:17:09.355Z,22.700001
2019-05-22T01:18:09.422Z,22.6
2019-05-22T01:19:09.560Z,21.9
2019-05-22T01:20:09.634Z,21.4
2019-05-22T01:21:09.695Z,21.200001
2019-05-22T01:22:09.765Z,21.299999
2019-05-22T01:23:09.839Z,20.4
2019-05-22T01:24:09.933Z,19.6
2019-05-22T01:25:10.029Z,20.5
2019-05-22T01:26:10.099Z,20.1
2019-05-22T01:27:10.148Z,20.1
2019-05-22T01:28:10.214Z,20.799999
2019-05-22T01:29:10.261Z,20.4
2019-05-22T01:30:10.367Z,20.200001
2019-05-22T01:31:10.424Z,20.299999
2019-05-22T01:32:10.477Z,19.6
2019-05-22T01:33:10.566Z,20.1
2019-05-22T01:34:10.637Z,19.799999
2019-05-22T01:35:10.739Z,20.9
2019-05-22T01:36:10.802Z,20
2019-05-22T01:37:10.876Z,20.299999
2019-05-22T01:38:10.928Z,20.799999
2019-05-22T01:39:10.998Z,21.299999
2019-05-22T01:40:11.074Z,20.9
2019-05-22T01:41:11.154Z,21.1
2019-05-22T01:42:11.217Z,21.700001
2019-05-22T01:43:11.304Z,21
2019-05-22T01:44:11.372Z,21.5
2019-05-22T01:45:11.491Z,21.4
2019-05-22T01:46:11.532Z,20.6
2019-05-22T01:47:11.664Z,19.700001
2019-05-22T01:48:11.736Z,20.299999
2019-05-22T01:49:11.796Z,20.4
2019-05-22T01:50:11.892Z,19.5
2019-05-22T01:51:11.988Z,19.700001
2019-05-22T01:52:12.034Z,21
2019-05-22T01:53:12.103Z,20.1
2019-05-22T01:54:12.175Z,20.1
2019-05-22T01:55:12.255Z,21.700001
2019-05-22T01:56:12.349Z,21.200001
2019-05-22T01:57:12.387Z,20.9
2019-05-22T01:58:12.450Z,20.9
2019-05-22T01:59:12.513Z,20.5
2019-05-22T02:00:12.600Z,20.6
2019-05-22T02:01:12.676Z,18.700001
2019-05-22T02:02:12.751Z,18.5
2019-05-22T02:03:12.809Z,19
2019-05-22T02:04:14.856Z,18.4
2019-05-22T02:05:12.950Z,18.9
2019-05-22T02:06:13.033Z,18.200001
2019-05-22T02:07:13.098Z,18.200001
2019-05-22T02:08:13.145Z,18.5
2019-05-22T02:09:13.216Z,17.799999
2019-05-22T02:10:13.297Z,18
2019-05-22T02:11:13.363Z,17.6
2019-05-22T02:12:13.427Z,17.299999
2019-05-22T02:13:13.496Z,16.9
2019-05-22T02:14:13.549Z,17.4
2019-05-22T02:15:13.656Z,16.700001
2019-05-22T02:16:13.740Z,15.5
2019-05-22T02:17:13.815Z,15.7
2019-05-22T02:18:13.884Z,16.6
2019-05-22T02:19:13.931Z,15.4
2019-05-22T02:20:14.167Z,15.3
2019-05-22T02:23:14.173Z,15.9
2019-05-22T02:24:14.240Z,14.3
2019-05-22T02:25:14.318Z,14
2019-05-22T02:26:14.393Z,13
2019-05-22T02:27:14.481Z,12.9
2019-05-22T02:28:14.527Z,12.8
2019-05-22T02:29:14.607Z,13.3
2019-05-22T02:30:14.667Z,11.8
2019-05-22T02:35:15.012Z,11
2019-05-22T02:36:15.101Z,10.9
2019-05-22T02:37:15.170Z,10.9
2019-05-22T02:38:15.225Z,10.5
2019-05-22T02:39:15.303Z,10.6
2019-05-22T02:40:15.381Z,10.1
2019-05-22T02:43:15.530Z,9
2019-05-22T02:44:15.624Z,9.7
2019-05-22T02:45:15.686Z,9.8
2019-05-22T02:46:15.863Z,9.3
2019-05-22T02:47:19.473Z,9.1
2019-05-22T02:48:16.769Z,9.3
2019-05-22T02:49:15.831Z,8.9
2019-05-22T02:50:15.892Z,8.8
2019-05-22T02:51:15.943Z,9.1
2019-05-22T02:52:16.078Z,9.4
2019-05-22T02:53:16.159Z,8.8
2019-05-22T02:54:16.190Z,9.5
2019-05-22T02:55:16.256Z,9.6
2019-05-22T02:56:16.320Z,8.6
2019-05-22T02:57:16.407Z,9.5
2019-05-22T02:58:16.466Z,8.6
2019-05-22T02:59:16.623Z,8.4
2019-05-22T03:00:16.609Z,9.4
2019-05-22T03:01:16.686Z,8.7
2019-05-22T03:02:16.785Z,9
2019-05-22T03:03:16.863Z,8.7
2019-05-22T03:04:16.923Z,9
2019-05-22T03:05:16.988Z,9.1
2019-05-22T03:06:17.041Z,8.4
2019-05-22T03:07:17.144Z,8.4
2019-05-22T03:08:17.225Z,8.5
2019-05-22T03:09:17.291Z,9
2019-05-22T03:10:17.356Z,8.7
2019-05-22T03:11:17.411Z,8.7
2019-05-22T03:12:17.476Z,9.1
2019-05-22T03:13:17.565Z,8.7
2019-05-22T03:14:17.621Z,9
2019-05-22T03:15:17.670Z,8.8
2019-05-22T03:16:17.735Z,8.9
2019-05-22T03:17:17.847Z,8.7
2019-05-22T03:18:17.916Z,8.8
2019-05-22T03:19:17.985Z,9
2019-05-22T03:20:18.087Z,9.6
2019-05-22T03:21:18.157Z,9.2
2019-05-22T03:22:18.298Z,9.3
2019-05-22T03:23:18.350Z,9.7
2019-05-22T03:24:18.414Z,8.9
2019-05-22T03:25:18.449Z,9.6
2019-05-22T03:26:18.520Z,9.1
2019-05-22T03:27:18.600Z,9.5
2019-05-22T03:28:18.661Z,9.6
2019-05-22T03:29:18.719Z,9.3
2019-05-22T03:30:18.778Z,9.4
2019-05-22T03:31:18.844Z,9.8
2019-05-22T03:32:18.930Z,9.5
2019-05-22T03:33:19.031Z,10.1
2019-05-22T03:34:19.084Z,9.7
2019-05-22T03:35:19.138Z,10
2019-05-22T03:36:19.204Z,9
2019-05-22T03:37:19.302Z,9.8
2019-05-22T03:38:19.362Z,9.4
2019-05-22T03:39:19.426Z,10.2
2019-05-22T03:40:19.510Z,10.1
2019-05-22T03:41:19.573Z,9.9
2019-05-22T03:42:19.688Z,10.9
2019-05-22T03:43:19.815Z,10.3
2019-05-22T03:44:19.924Z,10.9
2019-05-22T03:45:19.990Z,10.9
2019-05-22T03:46:20.041Z,11.1
2019-05-22T03:47:20.120Z,11.4
2019-05-22T03:48:20.201Z,11.7
2019-05-22T03:49:29.572Z,12.6
2019-05-22T03:50:21.305Z,12.5
2019-05-22T03:51:20.349Z,12.6
2019-05-22T03:52:20.450Z,12.3
2019-05-22T03:53:21.545Z,12.8
2019-05-22T03:54:20.641Z,12.6
2019-05-22T03:55:20.649Z,13
2019-05-22T03:56:20.798Z,13.3
2019-05-22T03:57:20.845Z,13.3
2019-05-22T03:58:20.951Z,13.6
2019-05-22T03:59:21.018Z,13.3
2019-05-22T04:00:21.185Z,13.5
2019-05-22T04:01:21.312Z,13.4
2019-05-22T04:02:21.490Z,13.8
2019-05-22T04:03:21.440Z,13.9
2019-05-22T04:04:21.424Z,13.8
2019-05-22T04:05:21.523Z,13.5
2019-05-22T04:06:21.626Z,14.5
2019-05-22T04:07:21.698Z,14.3
2019-05-22T04:08:21.880Z,14.8
2019-05-22T04:09:21.950Z,14.9
2019-05-22T04:10:21.963Z,15.2
2019-05-22T04:11:21.997Z,15.4
2019-05-22T04:12:22.011Z,15.3
2019-05-22T04:13:22.138Z,15.1
2019-05-22T04:14:22.440Z,14.7
2019-05-22T04:15:22.285Z,15.3
2019-05-22T04:16:22.300Z,15
2019-05-22T04:17:22.289Z,16.6
2019-05-22T04:18:23.014Z,15.1
2019-05-22T04:19:22.401Z,15.1
2019-05-22T04:20:22.449Z,14.1
2019-05-22T04:21:22.567Z,14.9
2019-05-22T04:22:22.609Z,15
2019-05-22T04:23:23.604Z,15.6
2019-05-22T04:24:22.774Z,15.2
2019-05-22T04:25:22.645Z,14.5
2019-05-22T04:26:22.662Z,15.2
2019-05-22T04:27:22.765Z,14.7
2019-05-22T04:28:22.834Z,15.3
2019-05-22T04:29:22.964Z,14.8
2019-05-22T04:30:23.015Z,15.5
2019-05-22T04:31:23.050Z,14.9
2019-05-22T04:32:23.278Z,14.8
2019-05-22T04:33:23.194Z,15.5
2019-05-22T04:34:23.357Z,15.3
2019-05-22T04:35:23.379Z,14.6
2019-05-22T04:36:23.315Z,14.2
2019-05-22T04:37:23.477Z,15.2
2019-05-22T04:38:23.509Z,15.2
2019-05-22T04:39:23.575Z,15.3
2019-05-22T04:40:23.653Z,13.9
2019-05-22T04:41:23.651Z,14.9
2019-05-22T04:42:23.648Z,14.2
2019-05-22T04:43:23.645Z,13.9
2019-05-22T04:44:23.659Z,13.9
2019-05-22T04:45:23.700Z,14.4
2019-05-22T04:46:24.831Z,14.2
2019-05-22T04:47:23.825Z,13.8
2019-05-22T04:48:23.831Z,13.1
2019-05-22T04:49:23.841Z,13.5
2019-05-22T04:50:23.868Z,13.5
2019-05-22T04:51:24.899Z,12.9
2019-05-22T04:52:23.927Z,12.8
2019-05-22T04:53:23.930Z,13.1
2019-05-22T04:54:23.943Z,12.7
2019-05-22T04:55:23.981Z,12.8
2019-05-22T04:56:23.971Z,13.5
2019-05-22T04:57:24.025Z,13.3
2019-05-22T04:58:24.071Z,13.7
2019-05-22T04:59:24.036Z,13.3
2019-05-22T05:00:24.084Z,13.8
2019-05-22T05:01:24.135Z,13
2019-05-22T05:02:24.190Z,13.9
2019-05-22T05:03:24.262Z,13.9
2019-05-22T05:04:24.310Z,14
2019-05-22T05:05:24.437Z,14.1
2019-05-22T05:06:24.565Z,14.1
2019-05-22T05:07:24.599Z,14
2019-05-22T05:08:24.786Z,14.7
2019-05-22T05:09:24.750Z,13.7
2019-05-22T05:10:24.795Z,13.9
2019-05-22T05:11:24.845Z,13.5
2019-05-22T05:12:24.928Z,13.4
2019-05-22T05:13:24.943Z,14.3
2019-05-22T05:14:24.959Z,13.4
2019-05-22T05:15:24.952Z,13.3
2019-05-22T05:16:25.017Z,13.3
2019-05-22T05:17:25.101Z,13.7
2019-05-22T05:18:25.153Z,14.5
2019-05-22T05:19:25.179Z,13.7
2019-05-22T05:20:25.226Z,14
2019-05-22T05:21:25.301Z,14.1
2019-05-22T05:22:25.370Z,14
2019-05-22T05:23:25.405Z,13.5
2019-05-22T05:24:25.414Z,14.1
2019-05-22T05:25:25.433Z,13.3
2019-05-22T05:26:25.454Z,14.1
2019-05-22T05:27:25.449Z,13.8
2019-05-22T05:28:25.447Z,12.9
2019-05-22T05:29:25.483Z,13.8
2019-05-22T05:30:25.484Z,13.3
2019-05-22T05:31:25.561Z,12.7
2019-05-22T05:34:25.962Z,13.5
2019-05-22T05:35:25.992Z,13.3
2019-05-22T05:36:26.136Z,12.6
2019-05-22T05:37:26.241Z,12.6
2019-05-22T05:38:26.295Z,12
2019-05-22T05:39:26.378Z,12.6
2019-05-22T05:40:26.400Z,12.6
2019-05-22T05:41:26.505Z,11.9
2019-05-22T05:42:26.521Z,12.4
2019-05-22T05:43:26.540Z,11.7
2019-05-22T05:44:26.576Z,13
2019-05-22T05:45:26.658Z,12.8
2019-05-22T05:46:26.709Z,12.8
2019-05-22T05:47:26.736Z,12
2019-05-22T05:48:26.854Z,12.2
2019-05-22T05:49:26.932Z,12.6
2019-05-22T05:50:38.714Z,12.1
2019-05-22T05:51:28.041Z,12.7
2019-05-22T05:52:27.049Z,12.6
2019-05-22T05:53:27.130Z,12.1
2019-05-22T05:54:30.160Z,12.5
2019-05-22T05:55:28.247Z,11.2
2019-05-22T05:56:27.491Z,11.6
2019-05-22T05:57:27.616Z,12.3
2019-05-22T05:58:27.674Z,12.2
2019-05-22T05:59:27.709Z,12.5
2019-05-22T06:00:27.850Z,12.3
2019-05-22T06:01:27.989Z,12.4
2019-05-22T06:02:28.094Z,13
2019-05-22T06:03:28.240Z,12.1
2019-05-22T06:04:34.440Z,12.5
2019-05-22T06:05:29.240Z,12.3
2019-05-22T06:06:28.449Z,12.1
2019-05-22T06:07:28.598Z,11.7
2019-05-22T06:08:28.640Z,12.2
2019-05-22T06:09:28.684Z,12
2019-05-22T06:10:28.725Z,12.9
2019-05-22T06:11:28.722Z,12.2
2019-05-22T06:12:28.794Z,11.9
2019-05-22T06:13:28.999Z,11.8
2019-05-22T06:14:28.954Z,11.9
2019-05-22T06:15:29.095Z,12
2019-05-22T06:16:30.084Z,11.3
2019-05-22T06:17:29.239Z,10.9
2019-05-22T06:18:29.178Z,11.7
2019-05-22T06:19:29.226Z,11.5
2019-05-22T06:20:29.251Z,11.9
2019-05-22T06:21:29.260Z,11.6
2019-05-22T06:22:29.432Z,12.1
2019-05-22T06:23:29.306Z,11.5
2019-05-22T06:24:29.437Z,11
2019-05-22T06:25:29.525Z,11.5
2019-05-22T06:26:30.174Z,10.9
2019-05-22T06:27:29.756Z,11.6
2019-05-22T06:28:29.947Z,11.6
2019-05-22T06:29:30.029Z,11.2
2019-05-22T06:30:29.952Z,11.2
2019-05-22T06:31:30.036Z,11
2019-05-22T06:32:30.168Z,11.4
2019-05-22T06:33:30.243Z,11
2019-05-22T06:34:30.300Z,10.8
2019-05-22T06:35:30.398Z,11.2
2019-05-22T06:36:30.534Z,10.5
2019-05-22T06:37:30.576Z,10.2
2019-05-22T06:38:30.651Z,10.7
2019-05-22T06:39:30.831Z,9.9
2019-05-22T06:40:30.716Z,10.8
2019-05-22T06:41:30.736Z,10.9
2019-05-22T06:42:30.745Z,10.2
2019-05-22T06:43:30.757Z,9.9
2019-05-22T06:44:30.858Z,10.1
2019-05-22T06:45:30.880Z,10
2019-05-22T06:46:31.879Z,10
2019-05-22T06:47:30.883Z,9.4
2019-05-22T06:48:30.892Z,8.2
2019-05-22T06:49:30.939Z,9
2019-05-22T06:50:31.050Z,8.8
2019-05-22T06:51:31.070Z,8.9
2019-05-22T06:52:31.106Z,8.8
2019-05-22T06:53:31.095Z,9
2019-05-22T06:54:31.143Z,9.2
2019-05-22T06:55:31.182Z,8.4
2019-05-22T06:56:31.190Z,8.4
2019-05-22T06:57:31.270Z,8.1
2019-05-22T06:58:31.308Z,7.7
2019-05-22T06:59:31.364Z,7.5
2019-05-22T07:00:31.416Z,7.2
2019-05-22T07:01:31.459Z,7.5
2019-05-22T07:02:31.446Z,7.6
2019-05-22T07:03:32.709Z,7
2019-05-22T07:04:31.733Z,6.8
2019-05-22T07:05:31.817Z,6.7
2019-05-22T07:06:31.804Z,7.1
2019-05-22T07:07:31.818Z,6.5
2019-05-22T07:08:31.853Z,6.8
2019-05-22T07:09:31.886Z,6.6
2019-05-22T07:10:31.906Z,6.7
2019-05-22T07:11:31.913Z,6.8
2019-05-22T07:12:31.917Z,6.2
2019-05-22T07:13:31.935Z,6.8
2019-05-22T07:14:31.945Z,6.3
2019-05-22T07:15:31.974Z,6.1
2019-05-22T07:16:32.001Z,6.5
2019-05-22T07:17:32.107Z,6.5
2019-05-22T07:18:32.208Z,6.2
2019-05-22T07:19:32.245Z,7
2019-05-22T07:20:32.366Z,6.9
2019-05-22T07:21:34.089Z,6.4
2019-05-22T07:22:32.550Z,6.5
2019-05-22T07:23:32.583Z,6.6
2019-05-22T07:24:32.597Z,7.3
2019-05-22T07:25:32.758Z,6.9
2019-05-22T07:26:32.753Z,7.9
2019-05-22T07:27:32.772Z,7.8
2019-05-22T07:28:32.806Z,7.2
2019-05-22T07:29:32.818Z,7.5
2019-05-22T07:30:32.875Z,8.1
2019-05-22T07:31:32.879Z,7.6
2019-05-22T07:32:32.911Z,7.2
2019-05-22T07:33:32.907Z,7.4
2019-05-22T07:34:32.905Z,7.5
2019-05-22T07:35:45.983Z,7.4
2019-05-22T07:36:33.996Z,7.6
2019-05-22T07:37:33.101Z,7.7
2019-05-22T07:38:33.186Z,6.7
2019-05-22T07:39:33.222Z,7
2019-05-22T07:40:33.269Z,6.8
2019-05-22T07:41:33.289Z,7
2019-05-22T07:42:33.309Z,7.6
2019-05-22T07:43:33.324Z,6.9
2019-05-22T07:44:33.356Z,7.2
2019-05-22T07:45:33.382Z,7.3
2019-05-22T07:46:33.483Z,7.1
2019-05-22T07:47:33.567Z,6.6
2019-05-22T07:48:33.642Z,6.9
2019-05-22T07:49:33.723Z,7.3
2019-05-22T07:50:33.819Z,6.9
2019-05-22T07:51:48.390Z,7.4
2019-05-22T07:52:34.828Z,7.1
2019-05-22T07:53:33.847Z,6.8
2019-05-22T07:54:33.932Z,6.8
2019-05-22T07:55:33.976Z,6.7
2019-05-22T07:56:34.160Z,6.4
2019-05-22T07:57:34.092Z,7.3
2019-05-22T07:58:34.188Z,6.5
2019-05-22T07:59:34.229Z,6.4
2019-05-22T08:00:34.330Z,6.4
2019-05-22T08:01:34.460Z,6.6
2019-05-22T08:02:34.549Z,6.6
2019-05-22T08:03:34.856Z,6.7
2019-05-22T08:04:34.654Z,6.9
2019-05-22T08:05:34.697Z,6.9
2019-05-22T08:06:34.805Z,6.7
2019-05-22T08:07:34.914Z,6.9
2019-05-22T08:08:34.933Z,7.1
2019-05-22T08:09:34.960Z,6.6
2019-05-22T08:10:35.188Z,6.4
2019-05-22T08:11:35.149Z,6.7
2019-05-22T08:12:35.220Z,6.6
2019-05-22T08:13:35.335Z,6.3
2019-05-22T08:14:35.384Z,5.8
2019-05-22T08:15:35.503Z,6.3
2019-05-22T08:16:35.681Z,6.1
2019-05-22T08:17:35.565Z,6.2
2019-05-22T08:18:35.561Z,6.9
2019-05-22T08:19:35.554Z,6.7
2019-05-22T08:20:35.540Z,6.5
2019-05-22T08:21:35.798Z,5.8
2019-05-22T08:22:35.829Z,6.1
2019-05-22T08:23:35.853Z,6.1
2019-05-22T08:24:35.875Z,6.1
2019-05-22T08:25:35.887Z,5.8
2019-05-22T08:26:51.563Z,6.1
2019-05-22T08:27:37.121Z,6.3
2019-05-22T08:28:36.105Z,5.9
2019-05-22T08:29:36.099Z,6.5
2019-05-22T08:30:36.192Z,6
2019-05-22T08:31:36.131Z,6.3
2019-05-22T08:32:36.203Z,5.5
2019-05-22T08:33:36.218Z,5.5
2019-05-22T08:34:36.212Z,5.2
2019-05-22T08:35:36.231Z,5.5
2019-05-22T08:36:38.570Z,5.3
2019-05-22T08:37:36.326Z,5.3
2019-05-22T08:38:36.358Z,5.1
2019-05-22T08:39:36.403Z,6.4
2019-05-22T08:40:36.414Z,5.6
2019-05-22T08:41:36.416Z,5.4
2019-05-22T08:42:36.441Z,5.4
2019-05-22T08:43:52.603Z,5.9
2019-05-22T08:44:37.495Z,5.9
2019-05-22T08:45:36.758Z,6.2
2019-05-22T08:46:36.620Z,5.9
2019-05-22T08:47:36.680Z,6.3
2019-05-22T08:48:36.742Z,5.7
2019-05-22T08:49:36.808Z,5.6
2019-05-22T08:50:36.890Z,5.6
2019-05-22T08:51:36.937Z,5.6
2019-05-22T08:52:37.011Z,5.4
2019-05-22T08:53:46.490Z,5.5
2019-05-22T08:54:38.094Z,5.9
2019-05-22T08:55:37.384Z,5.8
2019-05-22T08:56:37.248Z,5.6
2019-05-22T08:57:37.368Z,5.5
2019-05-22T08:58:37.488Z,5.6
2019-05-22T08:59:37.579Z,5.1
2019-05-22T09:00:37.617Z,6
2019-05-22T09:01:37.734Z,5.4
2019-05-22T09:02:37.765Z,5.5
2019-05-22T09:03:37.794Z,5.3
2019-05-22T09:04:37.893Z,5.4
2019-05-22T09:05:37.991Z,5.1
2019-05-22T09:06:38.073Z,5.2
2019-05-22T09:07:38.310Z,5.6
2019-05-22T09:08:38.204Z,5.3
2019-05-22T09:09:38.256Z,5.3
2019-05-22T09:10:38.295Z,5.2
2019-05-22T09:11:38.294Z,5.5
2019-05-22T09:12:38.295Z,5.1
2019-05-22T09:13:38.338Z,5.5
2019-05-22T09:14:38.373Z,5.3
2019-05-22T09:15:38.493Z,6
2019-05-22T09:16:38.396Z,5.4
2019-05-22T09:17:38.400Z,5.7
2019-05-22T09:18:38.404Z,5.6
2019-05-22T09:19:38.486Z,6
2019-05-22T09:20:48.486Z,5.9
2019-05-22T09:21:40.593Z,5.5
2019-05-22T09:22:40.940Z,5.7
2019-05-22T09:23:39.638Z,5.9
2019-05-22T09:24:38.710Z,5.9
2019-05-22T09:25:38.755Z,5.9
2019-05-22T09:26:38.771Z,6.1
2019-05-22T09:27:38.809Z,5.7
2019-05-22T09:28:38.816Z,6.7
2019-05-22T09:29:38.817Z,5.8
2019-05-22T09:30:38.867Z,6
2019-05-22T09:31:38.883Z,5.7
2019-05-22T09:32:38.935Z,5.8
2019-05-22T09:33:39.003Z,5.9
2019-05-22T09:34:39.142Z,6.2
2019-05-22T09:35:39.077Z,6.3
2019-05-22T09:36:39.106Z,5.9
2019-05-22T09:37:39.178Z,5.9
2019-05-22T09:38:39.216Z,5.9
2019-05-22T09:39:39.256Z,5.6
2019-05-22T09:40:39.427Z,5.8
2019-05-22T09:41:39.375Z,5.7
2019-05-22T09:42:39.485Z,5.6
2019-05-22T09:43:39.513Z,5.4
2019-05-22T09:44:39.619Z,5.9
2019-05-22T09:45:39.711Z,5.7
2019-05-22T09:46:39.711Z,5.3
2019-05-22T09:47:39.738Z,5.6
2019-05-22T09:48:39.756Z,5.7
2019-05-22T09:49:39.772Z,5.7
2019-05-22T09:50:39.823Z,5.8
2019-05-22T09:51:39.850Z,4.9
2019-05-22T09:52:54.616Z,5.2
2019-05-22T09:53:40.895Z,5.3
2019-05-22T09:54:40.050Z,5.2
2019-05-22T09:55:40.114Z,5.2
2019-05-22T09:56:41.130Z,5.3
2019-05-22T09:57:40.165Z,5.1
2019-05-22T09:58:40.140Z,4.9
2019-05-22T09:59:40.141Z,5.5
2019-05-22T10:00:40.255Z,4.9
2019-05-22T10:01:40.317Z,5
2019-05-22T10:02:40.377Z,4.5
2019-05-22T10:03:40.465Z,4.9
2019-05-22T10:04:40.590Z,5.1
2019-05-22T10:05:40.659Z,4.8
2019-05-22T10:06:40.728Z,5
2019-05-22T10:07:55.732Z,5
2019-05-22T10:08:41.775Z,4.9
2019-05-22T10:09:40.988Z,4.2
2019-05-22T10:10:41.070Z,4.7
2019-05-22T10:11:41.204Z,5
2019-05-22T10:12:41.267Z,4.7
2019-05-22T10:13:41.548Z,4.8
2019-05-22T10:14:41.470Z,4.8
2019-05-22T10:15:41.545Z,4.8
2019-05-22T10:16:41.646Z,5.2
2019-05-22T10:17:41.693Z,4.8
2019-05-22T10:18:41.807Z,4.8
2019-05-22T10:19:42.008Z,4.6
2019-05-22T10:20:41.900Z,4.3
2019-05-22T10:21:41.987Z,4.5
2019-05-22T10:22:42.072Z,4.4
2019-05-22T10:23:42.086Z,4.3
2019-05-22T10:24:42.159Z,4.4
2019-05-22T10:25:42.259Z,4.4
2019-05-22T10:26:42.428Z,4.2
2019-05-22T10:27:42.417Z,4.3
2019-05-22T10:28:42.517Z,4.8
2019-05-22T10:29:42.544Z,4.2
2019-05-22T10:30:42.676Z,4.4
2019-05-22T10:31:42.809Z,4.3
2019-05-22T10:32:42.956Z,4.8
2019-05-22T10:33:42.998Z,4.7
2019-05-22T10:34:43.084Z,4.4
2019-05-22T10:35:43.157Z,5
2019-05-22T10:36:43.359Z,4.9
2019-05-22T10:37:43.315Z,4.7
2019-05-22T10:38:43.446Z,4.4
2019-05-22T10:39:43.451Z,4.5
2019-05-22T10:40:43.558Z,4.7
2019-05-22T10:41:43.617Z,4.5
2019-05-22T10:42:44.803Z,4.4
2019-05-22T10:43:43.719Z,4.8
2019-05-22T10:44:43.776Z,4.5
2019-05-22T10:45:43.907Z,4.4
2019-05-22T10:46:43.928Z,4.5
2019-05-22T10:47:43.993Z,4.5
2019-05-22T10:48:44.128Z,4.5
2019-05-22T10:49:44.196Z,4.4
2019-05-22T10:50:44.380Z,4.4
2019-05-22T10:51:44.876Z,4.6
2019-05-22T10:52:44.425Z,4.7
2019-05-22T10:53:44.482Z,4.3
2019-05-22T10:54:44.503Z,4.4
2019-05-22T10:55:44.541Z,4.4
2019-05-22T10:56:44.422Z,4.6
2019-05-22T10:57:44.956Z,4.4
2019-05-22T10:58:44.702Z,4.1
2019-05-22T10:59:44.781Z,4.2
2019-05-22T11:00:45.117Z,4.2
2019-05-22T11:01:44.876Z,4
2019-05-22T11:02:45.012Z,4.3
2019-05-22T11:03:45.111Z,4.2
2019-05-22T11:04:45.216Z,4.3
2019-05-22T11:05:45.314Z,4.5
2019-05-22T11:06:46.309Z,4.3
2019-05-22T11:07:45.387Z,4.2
2019-05-22T11:08:45.522Z,4
2019-05-22T11:09:45.510Z,3.8
2019-05-22T11:10:45.551Z,4
2019-05-22T11:11:45.498Z,4.2
2019-05-22T11:12:45.494Z,4.3
2019-05-22T11:13:59.696Z,4.5
2019-05-22T11:14:46.574Z,4.5
2019-05-22T11:15:45.590Z,4.6
2019-05-22T11:16:45.603Z,4
2019-05-22T11:17:45.616Z,4.1
2019-05-22T11:18:45.683Z,3.9
2019-05-22T11:19:45.701Z,3.9
2019-05-22T11:20:45.713Z,3.9
2019-05-22T11:21:45.715Z,3.9
2019-05-22T11:22:45.730Z,4.2
2019-05-22T11:23:51.755Z,4.3
2019-05-22T11:24:46.910Z,3.9
2019-05-22T11:25:45.920Z,3.8
2019-05-22T11:26:45.933Z,4.5
2019-05-22T11:27:45.945Z,4.6
2019-05-22T11:28:45.964Z,4.3
2019-05-22T11:29:46.025Z,3.7
2019-05-22T11:30:46.062Z,3.9
2019-05-22T11:31:46.054Z,3.9
2019-05-22T11:32:46.079Z,4.1
2019-05-22T11:33:46.083Z,4.2
2019-05-22T11:34:46.132Z,4
2019-05-22T11:35:46.138Z,4.2
2019-05-22T11:36:46.150Z,4.2
2019-05-22T11:37:46.257Z,4.3
2019-05-22T11:38:46.361Z,3.9
2019-05-22T11:39:46.393Z,4.5
2019-05-22T11:40:46.545Z,4.3
2019-05-22T11:41:46.590Z,4.4
2019-05-22T11:42:46.748Z,4.3
2019-05-22T11:43:46.809Z,4.3
2019-05-22T11:44:46.970Z,4.2
2019-05-22T11:45:46.919Z,4.8
2019-05-22T11:46:47.158Z,4.1
2019-05-22T11:47:47.156Z,3.9
2019-05-22T11:48:47.090Z,4.7
2019-05-22T11:49:47.190Z,4.8
2019-05-22T11:50:47.244Z,4.5
2019-05-22T11:51:47.365Z,4.4
2019-05-22T11:52:47.434Z,4.3
2019-05-22T11:53:47.575Z,4.1
2019-05-22T11:54:47.676Z,4.4
2019-05-22T11:55:47.657Z,4.1
2019-05-22T11:56:47.724Z,3.9
2019-05-22T11:57:47.874Z,4.2
2019-05-22T11:58:47.837Z,4.1
2019-05-22T11:59:47.951Z,4.3
2019-05-22T12:00:48.059Z,4.6
2019-05-22T12:01:48.090Z,4.3
2019-05-22T12:02:48.281Z,4.5
2019-05-22T12:03:48.317Z,4.9
2019-05-22T12:04:49.034Z,4.6
2019-05-22T12:05:48.570Z,4.8
2019-05-22T12:06:48.531Z,5.3
2019-05-22T12:07:49.559Z,5.4
2019-05-22T12:08:48.694Z,5.4
2019-05-22T12:09:48.758Z,4.7
2019-05-22T12:10:48.751Z,4.6
2019-05-22T12:11:48.914Z,4.6
2019-05-22T12:12:49.019Z,4.6
2019-05-22T12:13:48.909Z,4.6
2019-05-22T12:14:48.881Z,4.4
2019-05-22T12:15:48.970Z,4.4
2019-05-22T12:16:52.407Z,4.9
2019-05-22T12:17:50.080Z,4.2
2019-05-22T12:18:49.255Z,4.8
2019-05-22T12:19:49.291Z,4.6
2019-05-22T12:20:49.336Z,4.4
2019-05-22T12:21:49.341Z,4.3
2019-05-22T12:22:49.348Z,4.8
2019-05-22T12:23:49.358Z,4.7
2019-05-22T12:24:49.416Z,4.7
2019-05-22T12:25:49.461Z,4.2
2019-05-22T12:26:49.504Z,4.7
2019-05-22T12:27:49.531Z,4.7
2019-05-22T12:28:49.548Z,4.2
2019-05-22T12:29:49.624Z,3.9
2019-05-22T12:30:49.668Z,4.3
2019-05-22T12:31:49.707Z,4.3
2019-05-22T12:32:49.713Z,4.2
2019-05-22T12:35:45.090Z,4.3
2019-05-22T12:36:45.203Z,4
2019-05-22T12:37:46.233Z,4.4
2019-05-22T12:38:45.314Z,4.4
2019-05-22T12:39:45.346Z,4.1
2019-05-22T12:40:45.370Z,4.4
2019-05-22T12:41:45.456Z,3.8
2019-05-22T12:42:45.510Z,3.5
2019-05-22T12:43:45.566Z,4
2019-05-22T12:44:45.620Z,4.3
2019-05-22T12:45:45.628Z,4.1
2019-05-22T12:46:45.646Z,4.1
2019-05-22T12:47:45.701Z,4.4
2019-05-22T12:48:45.705Z,3.8
2019-05-22T12:49:45.711Z,4.3
2019-05-22T12:50:45.722Z,4.1
2019-05-22T12:51:45.759Z,4.1
2019-05-22T12:52:45.792Z,4.1
2019-05-22T12:53:45.825Z,4.1
2019-05-22T12:54:49.801Z,4.2
2019-05-22T12:55:46.943Z,3.8
2019-05-22T12:56:46.169Z,4.1
2019-05-22T12:57:46.220Z,4
2019-05-22T12:58:46.297Z,3.7
2019-05-22T12:59:46.332Z,3.6
2019-05-22T13:00:46.336Z,3.5
2019-05-22T13:01:46.421Z,3.6
2019-05-22T13:02:46.482Z,3.4
2019-05-22T13:03:46.584Z,3.4
2019-05-22T13:04:46.579Z,4
2019-05-22T13:05:46.584Z,3.7
2019-05-22T13:06:46.582Z,3.6
2019-05-22T13:07:46.665Z,3.3
2019-05-22T13:08:46.670Z,3.4
2019-05-22T13:09:46.691Z,3.3
2019-05-22T13:10:46.731Z,3.2
2019-05-22T13:11:46.782Z,3.1
2019-05-22T13:12:46.812Z,3.1
2019-05-22T13:13:46.840Z,3.1
2019-05-22T13:14:46.853Z,3.5
2019-05-22T13:15:47.902Z,3.3
2019-05-22T13:16:48.964Z,3.3
2019-05-22T13:17:46.934Z,3.2
2019-05-22T13:18:46.971Z,3.3
2019-05-22T13:19:46.997Z,3.7
2019-05-22T13:20:46.985Z,3.2
2019-05-22T13:21:47.167Z,2.9
2019-05-22T13:22:48.272Z,3.2
2019-05-22T13:23:47.302Z,2.9
2019-05-22T13:24:47.311Z,3.1
2019-05-22T13:25:47.337Z,3
2019-05-22T13:26:47.363Z,3
2019-05-22T13:27:47.414Z,2.9
2019-05-22T13:28:47.477Z,2.9
2019-05-22T13:29:47.466Z,2.9
2019-05-22T13:30:47.468Z,2.6
2019-05-22T13:31:47.494Z,3.1
2019-05-22T13:32:47.567Z,3.2
2019-05-22T13:33:47.632Z,2.7
2019-05-22T13:34:47.631Z,3
2019-05-22T13:35:47.639Z,2.6
2019-05-22T13:36:47.758Z,2.8
2019-05-22T13:37:47.824Z,3
2019-05-22T13:38:48.850Z,2.7
2019-05-22T13:39:47.867Z,2.6
2019-05-22T13:40:47.884Z,2.8
2019-05-22T13:41:47.918Z,3